Time;durP1;ratioP1;P1;durP2;ratioP2;P2;SDS_P1;SDS_P2;PMS_P1;PMS_P2;Temp;Humidity;BMP_temperature;BMP_pressure;BME280_temperature;BME280_humidity;BME280_pressure;Samples;Min_cycle;Max_cycle;Signal;HPM_P1;HPM_P2
2023/12/22 00:00:19;;;;;;;22.73;4.35;;;6.20;99.90;;;;;;5093437;28;20124;-78
2023/12/22 00:02:45;;;;;;;16.45;4.28;;;6.20;99.90;;;;;;5086852;28;20037;-78
2023/12/22 00:05:10;;;;;;;16.75;4.30;;;6.10;99.90;;;;;;5095079;28;20036;-78
2023/12/22 00:07:36;;;;;;;22.67;4.78;;;6.20;99.90;;;;;;5088926;28;20123;-78
2023/12/22 00:10:02;;;;;;;24.48;5.38;;;6.30;99.90;;;;;;5089897;28;20629;-78
2023/12/22 00:12:28;;;;;;;17.80;3.88;;;6.40;99.90;;;;;;5093936;28;20435;-77
2023/12/22 00:14:54;;;;;;;19.02;4.72;;;6.40;99.90;;;;;;5075890;28;20419;-78
2023/12/22 00:17:19;;;;;;;27.05;5.25;;;6.50;99.90;;;;;;5095996;28;20036;-78
2023/12/22 00:19:45;;;;;;;19.42;4.53;;;6.60;99.90;;;;;;5095627;28;20123;-78
2023/12/22 00:22:10;;;;;;;17.58;4.43;;;6.70;99.90;;;;;;5092849;28;20035;-78
2023/12/22 00:24:36;;;;;;;18.88;4.05;;;6.70;99.90;;;;;;5083141;28;20048;-78
2023/12/22 00:27:03;;;;;;;16.70;5.38;;;6.60;99.90;;;;;;5091907;28;20039;-79
2023/12/22 00:29:28;;;;;;;19.55;5.22;;;6.40;99.90;;;;;;5095100;28;20111;-79
2023/12/22 00:31:55;;;;;;;16.02;2.95;;;6.40;99.90;;;;;;5094898;28;20487;-79
2023/12/22 00:34:22;;;;;;;20.98;4.00;;;6.30;99.90;;;;;;5085430;28;20044;-79
2023/12/22 00:36:47;;;;;;;16.40;3.35;;;6.30;99.90;;;;;;5094941;28;20028;-78
2023/12/22 00:39:13;;;;;;;18.63;3.30;;;6.30;99.90;;;;;;5092918;28;20411;-79
2023/12/22 00:41:39;;;;;;;27.13;5.55;;;6.20;99.90;;;;;;5094280;28;20487;-79
2023/12/22 00:44:04;;;;;;;18.70;5.55;;;6.20;99.90;;;;;;5094562;28;20118;-79
2023/12/22 00:46:30;;;;;;;18.20;3.63;;;6.20;99.90;;;;;;5094417;28;20044;-78
2023/12/22 00:48:56;;;;;;;20.33;3.00;;;6.30;99.90;;;;;;5094223;28;20048;-79
2023/12/22 00:51:21;;;;;;;11.98;2.45;;;6.40;99.90;;;;;;5094732;28;20043;-79
2023/12/22 00:53:47;;;;;;;9.98;1.50;;;6.30;99.90;;;;;;5093838;28;20403;-79
2023/12/22 00:56:13;;;;;;;12.85;1.95;;;6.20;99.90;;;;;;5094180;28;20047;-79
2023/12/22 00:58:39;;;;;;;14.75;2.90;;;6.10;99.90;;;;;;5092954;28;20518;-78
2023/12/22 01:01:05;;;;;;;9.18;1.63;;;6.10;99.90;;;;;;5092046;28;20044;-79
2023/12/22 01:03:31;;;;;;;15.20;2.58;;;6.10;99.90;;;;;;5092457;28;20036;-78
2023/12/22 01:05:56;;;;;;;13.93;2.38;;;6.30;99.90;;;;;;5091812;28;20150;-78
2023/12/22 01:08:22;;;;;;;9.27;2.60;;;6.20;99.90;;;;;;5091436;28;20047;-78
2023/12/22 01:10:48;;;;;;;8.07;1.63;;;6.30;99.90;;;;;;5095172;28;20043;-78
2023/12/22 01:13:14;;;;;;;11.70;1.70;;;6.30;99.90;;;;;;5093172;28;20046;-79
2023/12/22 01:15:40;;;;;;;11.32;2.92;;;6.30;99.90;;;;;;5092817;28;20115;-78
2023/12/22 01:18:05;;;;;;;9.18;1.92;;;6.30;99.90;;;;;;5094087;28;20478;-78
2023/12/22 01:20:31;;;;;;;16.63;3.20;;;6.30;99.90;;;;;;5093223;28;20506;-78
2023/12/22 01:22:56;;;;;;;13.77;3.70;;;6.30;99.90;;;;;;5091463;28;20123;-78
2023/12/22 01:25:22;;;;;;;16.05;3.05;;;6.40;99.90;;;;;;5093178;28;20463;-78
2023/12/22 01:27:48;;;;;;;17.80;2.88;;;6.30;99.90;;;;;;5092415;28;20032;-78
2023/12/22 01:30:14;;;;;;;16.63;4.10;;;6.40;99.90;;;;;;5092515;28;20142;-76
2023/12/22 01:32:40;;;;;;;15.90;3.63;;;6.30;99.90;;;;;;5092559;28;20046;-76
2023/12/22 01:35:09;;;;;;;21.95;4.05;;;6.30;99.90;;;;;;5091652;28;20105;-76
2023/12/22 01:37:36;;;;;;;19.73;4.72;;;6.30;99.90;;;;;;5090791;28;20043;-76
2023/12/22 01:40:02;;;;;;;24.50;3.25;;;6.30;99.90;;;;;;5091097;28;20075;-78
2023/12/22 01:42:28;;;;;;;19.35;4.07;;;6.30;99.90;;;;;;5091427;28;20051;-76
2023/12/22 01:44:54;;;;;;;19.00;4.95;;;6.40;99.90;;;;;;5092621;28;20040;-76
2023/12/22 01:47:20;;;;;;;17.45;4.10;;;6.40;99.90;;;;;;5092311;28;20119;-77
2023/12/22 01:49:46;;;;;;;18.65;6.47;;;6.40;99.90;;;;;;5092681;28;20044;-76
2023/12/22 01:52:11;;;;;;;19.05;3.67;;;6.40;99.90;;;;;;5092111;28;20071;-76
2023/12/22 01:54:37;;;;;;;21.73;4.75;;;6.50;99.90;;;;;;5091215;28;20097;-76
2023/12/22 01:57:04;;;;;;;15.70;3.83;;;6.50;99.90;;;;;;5090656;28;20032;-76
2023/12/22 01:59:34;;;;;;;20.00;3.85;;;6.60;99.90;;;;;;5091255;28;20131;-76
2023/12/22 02:02:03;;;;;;;15.93;2.70;;;6.60;99.90;;;;;;5091193;28;20040;-76
2023/12/22 02:04:30;;;;;;;17.55;3.92;;;6.60;99.90;;;;;;5090931;28;20075;-76
2023/12/22 02:07:00;;;;;;;15.23;3.40;;;6.50;99.90;;;;;;5090662;28;20101;-76
2023/12/22 02:09:26;;;;;;;13.32;3.13;;;6.40;99.90;;;;;;5091074;28;20565;-76
2023/12/22 02:11:52;;;;;;;17.15;3.72;;;6.40;99.90;;;;;;5090771;28;20044;-76
2023/12/22 02:14:17;;;;;;;16.05;4.15;;;6.30;99.90;;;;;;5090953;28;20040;-76
2023/12/22 02:17:08;;;;;;;17.65;4.30;;;6.40;99.90;;;;;;5090567;28;20073;-75
2023/12/22 02:19:45;;;;;;;19.70;4.82;;;6.30;99.90;;;;;;5073801;28;20094;-76
2023/12/22 02:22:11;;;;;;;22.50;4.93;;;6.30;99.90;;;;;;5091112;28;20040;-76
2023/12/22 02:24:38;;;;;;;19.88;4.32;;;6.40;99.90;;;;;;5090683;28;20047;-76
2023/12/22 02:27:41;;;;;;;15.38;4.78;;;6.50;99.90;;;;;;5073486;28;20503;-77
2023/12/22 02:30:15;;;;;;;17.70;5.32;;;6.40;99.90;;;;;;5086713;28;20404;-77
2023/12/22 02:32:43;;;;;;;22.67;3.95;;;6.30;99.90;;;;;;5074238;28;20457;-76
2023/12/22 02:35:14;;;;;;;15.88;4.18;;;6.00;99.90;;;;;;5090571;28;20511;-76
2023/12/22 02:37:41;;;;;;;12.77;3.38;;;6.00;99.90;;;;;;5073627;28;20040;-77
2023/12/22 02:40:08;;;;;;;12.25;3.25;;;6.00;99.90;;;;;;5073791;28;20040;-76
2023/12/22 02:42:35;;;;;;;12.20;2.83;;;5.90;99.90;;;;;;5090693;28;20112;-74
2023/12/22 02:45:01;;;;;;;22.80;3.42;;;5.90;99.90;;;;;;5090452;28;20055;-74
2023/12/22 02:47:27;;;;;;;16.02;3.00;;;5.90;99.90;;;;;;5090220;28;20048;-74
2023/12/22 02:49:53;;;;;;;20.13;3.75;;;5.90;99.90;;;;;;5090507;28;20047;-74
2023/12/22 02:52:19;;;;;;;14.13;3.90;;;5.80;99.90;;;;;;5090384;28;20036;-74
2023/12/22 02:54:47;;;;;;;26.35;4.10;;;5.80;99.90;;;;;;5090422;28;20127;-74
2023/12/22 02:57:12;;;;;;;20.83;4.28;;;5.80;99.90;;;;;;5092239;28;20040;-74
2023/12/22 02:59:38;;;;;;;15.20;3.50;;;5.90;99.90;;;;;;5094371;28;20032;-74
2023/12/22 03:02:04;;;;;;;16.85;4.13;;;6.00;99.90;;;;;;5094562;28;20044;-74
2023/12/22 03:04:30;;;;;;;25.77;4.60;;;6.00;99.90;;;;;;5094270;28;20131;-74
2023/12/22 03:06:56;;;;;;;20.60;3.88;;;6.00;99.90;;;;;;5094165;28;20554;-74
2023/12/22 03:09:22;;;;;;;18.90;4.28;;;6.00;99.90;;;;;;5094387;28;20051;-74
2023/12/22 03:11:48;;;;;;;17.70;4.28;;;6.20;99.90;;;;;;5094081;28;20040;-74
2023/12/22 03:14:14;;;;;;;8.60;2.30;;;6.00;99.90;;;;;;5094604;28;20122;-75
2023/12/22 03:16:40;;;;;;;14.10;2.90;;;6.10;99.90;;;;;;5077164;28;20567;-74
2023/12/22 03:19:07;;;;;;;8.88;1.98;;;5.90;99.90;;;;;;5094124;28;20046;-74
2023/12/22 03:21:32;;;;;;;10.63;1.50;;;5.70;99.90;;;;;;5093960;28;20083;-74
2023/12/22 03:23:58;;;;;;;6.88;1.65;;;5.70;99.90;;;;;;5094217;28;20060;-75
2023/12/22 03:26:26;;;;;;;4.45;1.60;;;5.50;99.90;;;;;;5093730;28;20031;-74
2023/12/22 03:28:51;;;;;;;5.22;1.25;;;5.30;99.90;;;;;;5093644;28;20032;-74
2023/12/22 03:31:17;;;;;;;9.32;1.67;;;5.40;99.90;;;;;;5093704;28;20040;-74
2023/12/22 03:33:42;;;;;;;8.45;1.95;;;5.30;99.90;;;;;;5077175;28;20126;-74
2023/12/22 03:36:08;;;;;;;10.68;2.75;;;5.30;99.90;;;;;;5093820;28;20495;-74
2023/12/22 03:38:34;;;;;;;13.63;2.53;;;5.40;99.90;;;;;;5093235;28;20036;-74
2023/12/22 03:40:59;;;;;;;12.10;3.53;;;5.20;99.90;;;;;;5093607;28;20251;-74
2023/12/22 03:43:25;;;;;;;15.88;3.22;;;5.40;99.90;;;;;;5093496;28;20036;-75
2023/12/22 03:45:50;;;;;;;13.57;3.35;;;5.40;99.90;;;;;;5093262;28;20032;-74
2023/12/22 03:48:16;;;;;;;18.13;3.65;;;5.40;99.90;;;;;;5093457;28;20076;-74
2023/12/22 03:50:42;;;;;;;14.07;4.05;;;5.40;99.90;;;;;;5094498;28;20032;-74
2023/12/22 03:53:07;;;;;;;14.63;3.67;;;5.40;99.90;;;;;;5093562;28;20047;-74
2023/12/22 03:55:33;;;;;;;14.85;2.50;;;5.60;99.90;;;;;;5093216;28;20599;-74
2023/12/22 03:57:59;;;;;;;15.68;4.50;;;5.60;99.90;;;;;;5093311;28;20461;-74
2023/12/22 04:00:24;;;;;;;11.13;2.50;;;5.70;99.90;;;;;;5093477;28;20043;-74
2023/12/22 04:02:50;;;;;;;13.23;2.92;;;5.80;99.90;;;;;;5093210;28;20040;-74
2023/12/22 04:05:15;;;;;;;13.18;2.20;;;5.90;99.90;;;;;;5094522;28;20111;-74
2023/12/22 04:07:41;;;;;;;12.20;2.33;;;6.10;99.90;;;;;;5091997;28;20093;-74
2023/12/22 04:10:07;;;;;;;15.70;3.40;;;6.30;99.90;;;;;;5092784;28;20044;-75
2023/12/22 04:12:32;;;;;;;8.35;2.40;;;6.40;99.90;;;;;;5093242;28;20043;-74
2023/12/22 04:14:58;;;;;;;12.77;2.85;;;6.40;99.90;;;;;;5092952;28;20040;-74
2023/12/22 04:17:24;;;;;;;12.70;2.25;;;6.40;99.90;;;;;;5092818;28;20032;-74
2023/12/22 04:19:49;;;;;;;14.57;3.10;;;6.40;99.90;;;;;;5093208;28;20043;-74
2023/12/22 04:22:15;;;;;;;12.15;3.45;;;6.40;99.90;;;;;;5092755;28;20043;-75
2023/12/22 04:24:40;;;;;;;12.75;2.90;;;6.40;99.90;;;;;;5093824;28;20127;-74
2023/12/22 04:27:06;;;;;;;18.73;3.15;;;6.30;99.90;;;;;;5093585;28;20036;-74
2023/12/22 04:29:32;;;;;;;11.45;2.63;;;6.30;99.90;;;;;;5092580;28;20039;-74
2023/12/22 04:31:57;;;;;;;26.40;3.90;;;6.30;99.90;;;;;;5092651;28;20044;-74
2023/12/22 04:34:23;;;;;;;18.77;3.67;;;6.30;99.90;;;;;;5092573;28;20040;-74
2023/12/22 04:36:49;;;;;;;19.30;6.00;;;6.30;99.90;;;;;;5092222;28;20134;-76
2023/12/22 04:39:14;;;;;;;18.48;4.80;;;6.40;99.90;;;;;;5092022;28;20039;-74
2023/12/22 04:41:40;;;;;;;21.48;4.57;;;6.40;99.90;;;;;;5092662;28;20039;-74
2023/12/22 04:44:06;;;;;;;21.10;4.95;;;6.30;99.90;;;;;;5093797;28;20224;-74
2023/12/22 04:46:31;;;;;;;25.27;4.15;;;6.30;99.90;;;;;;5093516;28;20032;-73
2023/12/22 04:48:57;;;;;;;23.52;4.30;;;6.40;99.90;;;;;;5093451;28;20396;-74
2023/12/22 04:51:23;;;;;;;25.77;5.03;;;6.40;99.90;;;;;;5092209;28;20040;-74
2023/12/22 04:53:49;;;;;;;19.55;4.40;;;6.50;99.90;;;;;;5092605;28;20465;-74
2023/12/22 04:56:15;;;;;;;14.40;3.13;;;6.60;99.90;;;;;;5092393;28;20119;-74
2023/12/22 04:58:40;;;;;;;12.95;3.30;;;6.70;99.90;;;;;;5093454;28;20035;-74
2023/12/22 05:01:06;;;;;;;24.65;3.78;;;6.60;99.90;;;;;;5092017;28;20040;-74
2023/12/22 05:03:32;;;;;;;17.90;3.33;;;6.70;99.90;;;;;;5092384;28;20166;-73
2023/12/22 05:05:58;;;;;;;27.80;5.47;;;6.70;99.90;;;;;;5091733;28;20044;-74
2023/12/22 05:08:23;;;;;;;22.17;5.18;;;6.80;99.90;;;;;;5091828;28;20066;-74
2023/12/22 05:10:49;;;;;;;22.35;5.47;;;6.80;99.90;;;;;;5091760;28;20185;-74
2023/12/22 05:13:14;;;;;;;31.15;4.93;;;6.80;99.90;;;;;;5091911;28;20032;-74
2023/12/22 05:15:40;;;;;;;17.80;4.63;;;6.90;99.90;;;;;;5075181;28;20134;-74
2023/12/22 05:18:06;;;;;;;21.40;3.80;;;6.90;99.90;;;;;;5091524;28;20039;-74
2023/12/22 05:20:31;;;;;;;13.50;3.35;;;7.00;99.90;;;;;;5091600;28;20040;-74
2023/12/22 05:22:58;;;;;;;16.10;3.90;;;7.10;99.90;;;;;;5091615;28;20093;-74
2023/12/22 05:25:24;;;;;;;22.85;4.18;;;7.20;99.90;;;;;;5091613;28;20043;-74
2023/12/22 05:27:50;;;;;;;19.88;4.75;;;7.10;99.90;;;;;;5091254;28;20047;-74
2023/12/22 05:30:15;;;;;;;19.42;3.63;;;7.20;99.90;;;;;;5091367;28;20499;-74
2023/12/22 05:32:41;;;;;;;18.42;3.65;;;7.20;99.90;;;;;;5091836;28;20024;-74
2023/12/22 05:35:07;;;;;;;23.23;4.60;;;7.20;99.90;;;;;;5091349;28;20106;-74
2023/12/22 05:37:32;;;;;;;18.77;3.88;;;7.10;99.90;;;;;;5091370;28;20471;-74
2023/12/22 05:39:58;;;;;;;18.42;4.07;;;7.10;99.90;;;;;;5091307;28;20036;-74
2023/12/22 05:42:24;;;;;;;22.65;4.45;;;7.20;99.90;;;;;;5091143;28;20046;-74
2023/12/22 05:44:50;;;;;;;14.32;4.18;;;7.20;99.90;;;;;;5091433;28;20044;-73
2023/12/22 05:47:16;;;;;;;21.33;4.80;;;7.10;99.90;;;;;;5091320;28;20094;-74
2023/12/22 05:49:43;;;;;;;15.48;3.58;;;7.10;99.90;;;;;;5090992;28;20040;-74
2023/12/22 05:52:09;;;;;;;27.90;5.45;;;7.20;99.90;;;;;;5092334;28;20109;-74
2023/12/22 05:54:35;;;;;;;25.75;4.93;;;7.20;99.90;;;;;;5091158;28;20044;-74
2023/12/22 05:57:04;;;;;;;23.33;4.65;;;7.30;99.90;;;;;;5091211;28;20059;-74
2023/12/22 05:59:32;;;;;;;17.30;3.53;;;7.20;99.90;;;;;;5092397;28;20051;-74
2023/12/22 06:01:58;;;;;;;20.58;5.07;;;7.20;99.90;;;;;;5091029;28;20040;-74
2023/12/22 06:04:24;;;;;;;17.48;4.07;;;7.30;99.90;;;;;;5074378;28;20055;-74
2023/12/22 06:06:50;;;;;;;21.20;3.45;;;7.20;99.90;;;;;;5073821;28;20047;-74
2023/12/22 06:09:18;;;;;;;17.63;5.53;;;7.30;99.90;;;;;;5090730;28;20036;-73
2023/12/22 06:11:46;;;;;;;20.77;4.90;;;7.20;99.90;;;;;;5090758;28;20071;-75
2023/12/22 06:14:11;;;;;;;16.33;3.97;;;7.20;99.90;;;;;;5076488;28;20120;-74
2023/12/22 06:16:37;;;;;;;19.85;3.58;;;7.20;99.90;;;;;;5070549;28;20131;-74
2023/12/22 06:19:02;;;;;;;16.88;3.63;;;7.20;99.90;;;;;;5070406;28;20488;-74
2023/12/22 06:21:28;;;;;;;19.17;4.70;;;7.20;99.90;;;;;;5053902;28;20177;-75
2023/12/22 06:23:54;;;;;;;14.57;3.65;;;7.20;99.90;;;;;;5053980;28;20496;-74
2023/12/22 06:26:20;;;;;;;16.42;3.88;;;7.20;99.90;;;;;;5053645;28;20040;-74
2023/12/22 06:28:45;;;;;;;28.38;4.47;;;7.30;99.90;;;;;;5070448;28;20113;-74
2023/12/22 06:31:19;;;;;;;21.77;4.82;;;7.20;99.90;;;;;;5070742;28;20037;-74
2023/12/22 06:33:46;;;;;;;16.65;3.50;;;7.20;99.90;;;;;;5057914;28;20047;-75
2023/12/22 06:36:22;;;;;;;19.90;3.75;;;7.20;99.90;;;;;;5074639;28;20115;-74
2023/12/22 06:38:48;;;;;;;20.92;3.65;;;7.20;99.90;;;;;;5074290;28;20072;-75
2023/12/22 06:41:29;;;;;;;17.52;3.80;;;7.30;99.90;;;;;;5075421;28;20120;-75
2023/12/22 06:43:55;;;;;;;14.10;3.75;;;7.20;99.90;;;;;;5075575;28;20043;-75
2023/12/22 06:46:23;;;;;;;16.30;4.07;;;7.30;99.90;;;;;;5074182;28;20404;-74
2023/12/22 06:48:49;;;;;;;24.63;5.40;;;7.30;99.90;;;;;;5074036;28;20043;-74
2023/12/22 06:51:19;;;;;;;22.58;3.92;;;7.20;99.90;;;;;;5074105;28;20045;-74
2023/12/22 06:53:45;;;;;;;21.77;4.18;;;7.30;99.90;;;;;;5074158;28;20075;-75
2023/12/22 06:56:24;;;;;;;23.95;5.05;;;7.20;99.90;;;;;;5073983;28;20037;-75
2023/12/22 06:58:51;;;;;;;13.27;2.47;;;7.10;99.90;;;;;;5074117;28;20487;-74
2023/12/22 07:01:25;;;;;;;15.35;2.83;;;6.90;99.90;;;;;;5074290;28;20044;-75
2023/12/22 07:03:51;;;;;;;12.65;2.63;;;6.80;99.90;;;;;;5074006;28;20055;-74
2023/12/22 07:06:22;;;;;;;9.98;1.77;;;6.60;99.90;;;;;;5073689;28;20048;-74
2023/12/22 07:09:17;;;;;;;11.38;2.60;;;6.50;99.90;;;;;;5073502;28;20087;-75
2023/12/22 07:11:44;;;;;;;15.35;3.20;;;6.40;99.90;;;;;;5073875;28;20388;-75
2023/12/22 07:14:10;;;;;;;9.13;2.90;;;6.20;99.90;;;;;;5073909;28;20094;-75
2023/12/22 07:16:36;;;;;;;17.08;2.88;;;6.20;99.90;;;;;;5056777;28;20032;-73
2023/12/22 07:19:03;;;;;;;13.05;3.00;;;6.20;99.90;;;;;;5073497;28;20565;-74
2023/12/22 07:21:29;;;;;;;11.68;2.65;;;6.20;99.90;;;;;;5073688;28;20679;-75
2023/12/22 07:23:54;;;;;;;17.67;3.72;;;6.30;99.90;;;;;;5073528;28;20045;-75
2023/12/22 07:26:21;;;;;;;8.02;2.17;;;6.30;99.90;;;;;;5073463;28;20037;-74
2023/12/22 07:28:47;;;;;;;18.95;4.72;;;6.40;99.90;;;;;;5073333;28;20041;-74
2023/12/22 07:31:14;;;;;;;18.08;3.60;;;6.50;99.90;;;;;;5073409;28;20048;-74
2023/12/22 07:33:43;;;;;;;14.88;3.33;;;6.60;99.90;;;;;;5073418;28;20086;-74
2023/12/22 07:36:08;;;;;;;9.95;3.38;;;6.70;99.90;;;;;;5074536;28;20032;-74
2023/12/22 07:38:34;;;;;;;14.13;4.03;;;6.70;99.90;;;;;;5073193;28;20043;-75
2023/12/22 07:41:00;;;;;;;18.60;3.40;;;6.80;99.90;;;;;;5073090;28;20428;-74
2023/12/22 07:43:26;;;;;;;18.02;5.68;;;6.80;99.90;;;;;;5072912;28;20412;-75
2023/12/22 07:45:51;;;;;;;18.00;3.72;;;6.80;99.90;;;;;;5073019;28;20094;-75
2023/12/22 07:48:18;;;;;;;20.13;3.33;;;6.70;99.90;;;;;;5072923;28;20044;-74
2023/12/22 07:50:44;;;;;;;12.23;3.03;;;6.70;99.90;;;;;;5072859;28;20060;-74
2023/12/22 07:53:10;;;;;;;18.17;4.05;;;6.70;99.90;;;;;;5056180;28;20127;-75
2023/12/22 07:55:35;;;;;;;15.52;2.92;;;6.70;99.90;;;;;;5072981;28;20466;-74
2023/12/22 07:58:01;;;;;;;23.30;3.53;;;6.70;99.90;;;;;;5073001;28;20553;-74
2023/12/22 08:00:27;;;;;;;16.73;4.20;;;6.70;99.90;;;;;;5072877;28;20118;-74
2023/12/22 08:02:53;;;;;;;21.30;3.88;;;6.70;99.90;;;;;;5057121;28;20071;-74
2023/12/22 08:05:19;;;;;;;17.00;2.80;;;6.70;99.90;;;;;;5091126;28;20057;-74
2023/12/22 08:07:45;;;;;;;16.33;3.05;;;6.60;99.90;;;;;;5063894;28;20040;-76
2023/12/22 08:10:10;;;;;;;17.20;3.78;;;6.50;99.90;;;;;;5084492;28;20083;-74
2023/12/22 08:12:37;;;;;;;18.13;3.85;;;6.50;99.90;;;;;;5088326;28;20036;-74
2023/12/22 08:15:03;;;;;;;25.40;3.55;;;6.60;99.90;;;;;;5072187;28;20127;-75
2023/12/22 08:17:29;;;;;;;19.95;3.20;;;6.60;99.90;;;;;;5092502;28;20031;-75
2023/12/22 08:19:54;;;;;;;14.60;3.28;;;6.60;99.90;;;;;;5075851;28;20044;-75
2023/12/22 08:22:22;;;;;;;20.70;3.45;;;6.60;99.90;;;;;;5090711;28;20415;-75
2023/12/22 08:24:48;;;;;;;15.75;3.90;;;6.60;99.90;;;;;;5086603;28;20048;-76
2023/12/22 08:27:13;;;;;;;16.92;3.92;;;6.70;99.90;;;;;;5092341;28;20036;-76
2023/12/22 08:29:39;;;;;;;18.30;3.30;;;6.70;99.90;;;;;;5092531;28;20039;-76
2023/12/22 08:32:05;;;;;;;22.52;3.95;;;6.70;99.90;;;;;;5093813;28;20033;-75
2023/12/22 08:34:31;;;;;;;20.50;3.30;;;6.80;99.90;;;;;;5092433;28;20380;-75
2023/12/22 08:36:56;;;;;;;16.98;2.90;;;6.90;99.90;;;;;;5093438;28;20044;-76
2023/12/22 08:39:24;;;;;;;14.85;3.97;;;6.90;99.90;;;;;;5092485;28;20047;-76
2023/12/22 08:41:49;;;;;;;33.05;5.80;;;6.90;99.90;;;;;;5092334;28;20035;-78
2023/12/22 08:44:15;;;;;;;17.13;2.83;;;6.90;99.90;;;;;;5084257;28;20032;-79
2023/12/22 08:46:41;;;;;;;15.40;3.85;;;7.10;99.90;;;;;;5093300;28;20083;-81
2023/12/22 08:49:07;;;;;;;17.33;3.90;;;7.10;99.90;;;;;;5094259;28;20051;-79
2023/12/22 08:51:33;;;;;;;15.40;3.97;;;7.10;99.90;;;;;;5092645;28;20044;-79
2023/12/22 08:53:59;;;;;;;18.20;3.45;;;7.10;99.90;;;;;;5091711;28;20032;-79
2023/12/22 08:56:26;;;;;;;14.88;3.08;;;7.20;99.90;;;;;;5092181;28;20484;-79
2023/12/22 08:58:54;;;;;;;16.33;3.25;;;7.30;99.90;;;;;;5092849;28;20043;-78
2023/12/22 09:01:21;;;;;;;17.20;3.45;;;7.20;99.90;;;;;;5075443;28;20495;-79
2023/12/22 09:03:47;;;;;;;16.83;3.10;;;7.30;99.90;;;;;;5092766;28;20075;-79
2023/12/22 09:06:21;;;;;;;15.02;3.10;;;7.30;99.90;;;;;;5096593;28;20058;-81
2023/12/22 09:08:48;;;;;;;16.08;3.40;;;7.30;99.90;;;;;;5094052;28;20040;-80
2023/12/22 09:11:16;;;;;;;12.40;2.50;;;7.30;99.90;;;;;;5087941;28;20044;-80
2023/12/22 09:13:43;;;;;;;11.15;2.42;;;7.30;99.90;;;;;;5096719;28;20036;-80
2023/12/22 09:16:09;;;;;;;13.25;2.70;;;7.30;99.90;;;;;;5077658;28;20043;-79
2023/12/22 09:18:35;;;;;;;15.85;3.03;;;7.30;99.90;;;;;;5078766;28;20039;-80
2023/12/22 09:21:02;;;;;;;9.93;3.60;;;7.30;99.90;;;;;;5092589;28;20066;-80
2023/12/22 09:23:28;;;;;;;12.63;3.05;;;7.30;99.90;;;;;;5091290;28;20122;-79
2023/12/22 09:25:54;;;;;;;18.60;2.55;;;7.20;99.90;;;;;;5094534;28;20066;-79
2023/12/22 09:28:20;;;;;;;10.95;2.10;;;7.30;99.90;;;;;;5079001;28;20032;-80
2023/12/22 09:30:45;;;;;;;14.23;2.38;;;7.20;99.90;;;;;;5076383;28;20038;-80
2023/12/22 09:33:11;;;;;;;20.85;3.70;;;7.40;99.90;;;;;;5063307;28;20097;-78
2023/12/22 09:35:41;;;;;;;12.23;2.78;;;7.30;99.90;;;;;;5091238;28;20119;-78
2023/12/22 09:38:09;;;;;;;18.90;3.05;;;7.30;99.90;;;;;;5091563;28;20051;-78
2023/12/22 09:40:36;;;;;;;9.25;3.03;;;7.30;99.90;;;;;;5094165;28;20100;-79
2023/12/22 09:43:02;;;;;;;10.70;2.15;;;7.30;99.90;;;;;;5092665;28;20043;-80
2023/12/22 09:45:30;;;;;;;8.20;2.13;;;7.40;99.90;;;;;;5076529;28;20097;-80
2023/12/22 09:47:58;;;;;;;15.85;2.85;;;7.40;99.90;;;;;;5092403;28;20067;-80
2023/12/22 09:50:25;;;;;;;10.73;1.88;;;7.50;99.90;;;;;;5090101;28;20048;-81
2023/12/22 09:52:51;;;;;;;11.70;3.05;;;7.50;99.90;;;;;;5091128;28;20040;-79
2023/12/22 09:55:19;;;;;;;12.25;2.33;;;7.50;99.90;;;;;;5074927;28;20031;-79
2023/12/22 09:57:46;;;;;;;18.73;3.03;;;7.50;99.90;;;;;;5075631;28;20039;-80
2023/12/22 10:00:14;;;;;;;10.00;1.70;;;7.50;99.90;;;;;;5093068;28;20126;-81
2023/12/22 10:02:41;;;;;;;8.63;2.80;;;7.60;99.90;;;;;;5091659;28;20085;-80
2023/12/22 10:05:07;;;;;;;12.15;2.20;;;7.60;99.90;;;;;;5092672;28;20067;-80
2023/12/22 10:07:33;;;;;;;10.50;3.05;;;7.60;99.90;;;;;;5093467;28;20487;-80
2023/12/22 10:10:00;;;;;;;10.57;2.65;;;7.60;99.90;;;;;;5092603;28;20044;-79
2023/12/22 10:12:30;;;;;;;12.00;1.65;;;7.60;99.90;;;;;;5092661;28;20074;-79
2023/12/22 10:14:56;;;;;;;10.27;2.85;;;7.60;99.90;;;;;;5092239;28;20046;-79
2023/12/22 10:17:22;;;;;;;13.20;2.50;;;7.60;99.90;;;;;;5093291;28;20035;-80
2023/12/22 10:19:48;;;;;;;7.97;2.50;;;7.60;99.90;;;;;;5076163;28;20040;-81
2023/12/22 10:22:14;;;;;;;9.05;1.83;;;7.60;99.90;;;;;;5092238;28;20430;-79
2023/12/22 10:24:44;;;;;;;8.18;1.77;;;7.60;99.90;;;;;;5074529;28;20044;-79
2023/12/22 10:27:14;;;;;;;10.73;2.60;;;7.60;99.90;;;;;;5092655;28;20113;-80
2023/12/22 10:29:40;;;;;;;12.95;2.58;;;7.70;99.90;;;;;;5092525;28;20050;-79
2023/12/22 10:32:07;;;;;;;15.45;3.67;;;7.60;99.90;;;;;;5076235;28;20491;-84
2023/12/22 10:34:33;;;;;;;10.38;2.63;;;7.70;99.90;;;;;;5097009;28;20036;-80
2023/12/22 10:37:00;;;;;;;8.05;2.70;;;7.70;99.90;;;;;;5092122;28;20044;-80
2023/12/22 10:39:29;;;;;;;12.65;3.58;;;7.70;99.90;;;;;;5092564;28;20044;-79
2023/12/22 10:41:56;;;;;;;10.18;2.42;;;7.70;99.90;;;;;;5091435;28;20148;-77
2023/12/22 10:44:29;;;;;;;18.00;3.22;;;7.70;99.90;;;;;;5090330;28;20044;-77
2023/12/22 10:46:56;;;;;;;14.98;2.50;;;7.80;99.90;;;;;;5090121;28;20499;-77
2023/12/22 10:49:22;;;;;;;12.82;2.38;;;7.80;99.90;;;;;;5090147;28;20044;-77
2023/12/22 10:51:49;;;;;;;13.48;2.50;;;7.70;99.90;;;;;;5090150;28;20582;-77
2023/12/22 10:54:14;;;;;;;12.88;2.88;;;7.70;99.90;;;;;;5090239;28;20036;-77
2023/12/22 10:56:41;;;;;;;11.90;3.35;;;7.80;99.90;;;;;;5089854;28;20036;-77
2023/12/22 10:59:08;;;;;;;12.38;2.78;;;7.80;99.90;;;;;;5090426;28;20411;-77
2023/12/22 11:01:38;;;;;;;12.00;3.00;;;7.70;99.90;;;;;;5072886;28;20093;-77
2023/12/22 11:04:06;;;;;;;12.82;3.35;;;7.70;99.90;;;;;;5090152;28;20047;-76
2023/12/22 11:06:37;;;;;;;15.02;2.70;;;7.70;99.90;;;;;;5090275;28;20403;-77
2023/12/22 11:09:11;;;;;;;15.13;2.42;;;7.80;99.90;;;;;;5090075;28;20044;-77
2023/12/22 11:11:39;;;;;;;12.70;2.67;;;7.80;99.90;;;;;;5090115;28;20040;-76
2023/12/22 11:14:06;;;;;;;10.63;3.17;;;7.80;99.90;;;;;;5090059;28;20040;-77
2023/12/22 11:16:33;;;;;;;14.18;2.60;;;7.90;99.90;;;;;;5089927;28;20036;-77
2023/12/22 11:19:00;;;;;;;11.88;2.78;;;7.90;99.90;;;;;;5076265;28;20377;-77
2023/12/22 11:21:26;;;;;;;13.80;2.72;;;7.90;99.90;;;;;;5076836;28;20071;-77
2023/12/22 11:23:53;;;;;;;8.38;2.33;;;7.90;99.90;;;;;;5093727;28;20089;-77
2023/12/22 11:26:21;;;;;;;11.88;2.15;;;7.90;99.90;;;;;;5093811;28;20058;-77
2023/12/22 11:28:47;;;;;;;17.05;3.10;;;8.00;99.90;;;;;;5093551;28;20097;-76
2023/12/22 11:31:13;;;;;;;11.23;2.40;;;8.00;99.90;;;;;;5093411;28;20044;-76
2023/12/22 11:33:47;;;;;;;7.82;2.08;;;8.00;99.90;;;;;;5093807;28;20063;-76
2023/12/22 11:36:14;;;;;;;15.00;2.67;;;8.00;99.90;;;;;;5093213;28;20036;-77
2023/12/22 11:38:41;;;;;;;8.00;2.13;;;8.00;99.90;;;;;;5093246;28;20067;-77
2023/12/22 11:41:11;;;;;;;14.98;2.17;;;8.10;99.90;;;;;;5076468;28;20583;-77
2023/12/22 11:43:39;;;;;;;8.82;2.10;;;8.10;99.90;;;;;;5093391;28;20050;-76
2023/12/22 11:46:05;;;;;;;14.75;3.10;;;8.10;99.90;;;;;;5093224;28;20519;-76
2023/12/22 11:48:31;;;;;;;14.18;2.50;;;8.20;99.90;;;;;;5093381;28;20129;-77
2023/12/22 11:50:57;;;;;;;9.93;2.30;;;8.10;99.90;;;;;;5076282;28;20040;-76
2023/12/22 11:53:24;;;;;;;14.45;2.45;;;8.10;99.90;;;;;;5093101;28;20524;-77
2023/12/22 11:56:10;;;;;;;14.18;2.65;;;8.20;99.90;;;;;;5093074;28;20036;-77
2023/12/22 11:58:58;;;;;;;12.50;3.08;;;8.20;99.90;;;;;;5092795;28;20040;-77
2023/12/22 12:01:25;;;;;;;12.82;2.58;;;8.10;99.90;;;;;;5093083;28;20077;-76
2023/12/22 12:03:53;;;;;;;15.00;2.70;;;8.10;99.90;;;;;;5093001;28;20460;-77
2023/12/22 12:06:32;;;;;;;17.52;4.35;;;8.30;99.90;;;;;;5092873;28;20503;-77
2023/12/22 12:08:59;;;;;;;15.82;2.45;;;8.20;99.90;;;;;;5092663;28;20125;-77
2023/12/22 12:11:59;;;;;;;18.13;3.28;;;8.20;99.90;;;;;;5075784;28;20047;-76
2023/12/22 12:14:33;;;;;;;10.20;2.80;;;8.20;99.90;;;;;;5092940;28;20062;-77
2023/12/22 12:17:03;;;;;;;;;;;8.20;99.90;;;;;;5092837;28;20503;-77
2023/12/22 12:19:29;;;;;;;10.55;2.00;;;8.20;99.90;;;;;;5092554;28;19969;-76
2023/12/22 12:21:55;;;;;;;13.57;3.10;;;8.10;99.90;;;;;;5093948;28;20036;-77
2023/12/22 12:24:20;;;;;;;13.07;2.88;;;8.20;99.90;;;;;;5092553;28;20040;-76
2023/12/22 12:26:46;;;;;;;17.20;4.60;;;8.20;99.90;;;;;;5093564;28;20115;-76
2023/12/22 12:29:12;;;;;;;16.73;2.60;;;8.20;99.90;;;;;;5092739;28;20067;-76
2023/12/22 12:31:37;;;;;;;14.82;2.80;;;8.20;99.90;;;;;;5092245;28;20479;-76
2023/12/22 12:34:05;;;;;;;13.23;3.45;;;8.20;99.90;;;;;;5092393;28;20550;-76
2023/12/22 12:36:31;;;;;;;14.88;3.00;;;8.20;99.90;;;;;;5092451;28;20036;-76
2023/12/22 12:39:10;;;;;;;13.68;2.75;;;8.20;99.90;;;;;;5092143;28;20198;-76
2023/12/22 12:41:43;;;;;;;10.30;2.38;;;8.20;99.90;;;;;;5092088;28;20040;-76
2023/12/22 12:44:10;;;;;;;9.20;1.90;;;8.20;99.90;;;;;;5092393;28;20048;-76
2023/12/22 12:46:41;;;;;;;17.42;2.42;;;8.20;99.90;;;;;;5091911;28;20047;-76